createdAt,value
2022-09-04T00:02:23.389Z,3.78
2022-09-04T00:05:01.023Z,3.97
2022-09-04T00:07:48.366Z,3.50
2022-09-04T00:10:23.961Z,4.07
2022-09-04T00:12:58.107Z,3.80
2022-09-04T00:15:36.179Z,3.90
2022-09-04T00:18:10.973Z,3.83
2022-09-04T00:20:46.990Z,4.25
2022-09-04T00:23:22.855Z,4.00
2022-09-04T00:26:00.520Z,4.45
2022-09-04T00:28:36.407Z,4.10
2022-09-04T00:31:20.506Z,4.13
2022-09-04T00:33:56.242Z,4.22
2022-09-04T00:36:27.623Z,4.53
2022-09-04T00:39:03.683Z,4.40
2022-09-04T00:41:44.031Z,4.53
2022-09-04T00:44:42.759Z,4.90
2022-09-04T00:47:46.186Z,5.60
2022-09-04T00:50:41.574Z,5.65
2022-09-04T00:53:32.287Z,5.65
2022-09-04T00:56:28.046Z,5.20
2022-09-04T00:59:15.980Z,5.63
2022-09-04T01:02:19.495Z,5.85
2022-09-04T01:04:58.127Z,5.70
2022-09-04T01:07:45.490Z,5.70
2022-09-04T01:10:30.101Z,6.57
2022-09-04T01:13:10.690Z,6.70
2022-09-04T01:15:45.950Z,5.40
2022-09-04T01:18:20.648Z,5.38
2022-09-04T01:21:30.853Z,5.70
2022-09-04T01:24:24.034Z,5.63
2022-09-04T01:27:04.521Z,6.10
2022-09-04T01:29:47.941Z,6.55
2022-09-04T01:32:32.917Z,6.85
2022-09-04T01:35:13.554Z,6.90
2022-09-04T01:37:52.922Z,7.10
2022-09-04T01:40:35.858Z,6.57
2022-09-04T01:43:10.920Z,7.50
2022-09-04T01:46:17.053Z,7.45
2022-09-04T01:48:53.190Z,7.05
2022-09-04T01:51:32.806Z,7.38
2022-09-04T01:54:27.733Z,8.27
2022-09-04T01:57:14.897Z,7.95
2022-09-04T02:00:02.498Z,9.00
2022-09-04T02:02:48.864Z,8.82
2022-09-04T02:05:31.023Z,9.82
2022-09-04T02:08:15.922Z,9.27
2022-09-04T02:10:53.982Z,9.25
2022-09-04T02:13:34.189Z,8.70
2022-09-04T02:16:14.687Z,9.35
2022-09-04T02:18:56.800Z,10.15
2022-09-04T02:21:34.317Z,9.25
2022-09-04T02:24:14.717Z,9.45
2022-09-04T02:26:52.255Z,9.90
2022-09-04T02:29:29.120Z,8.57
2022-09-04T02:32:13.127Z,10.68
2022-09-04T02:34:50.710Z,9.57
2022-09-04T02:37:30.365Z,9.68
2022-09-04T02:40:13.643Z,10.00
2022-09-04T02:43:16.907Z,10.75
2022-09-04T02:45:57.223Z,9.23
2022-09-04T02:48:42.443Z,9.85
2022-09-04T02:51:24.838Z,10.73
2022-09-04T02:54:03.884Z,10.13
2022-09-04T02:56:48.869Z,10.38
2022-09-04T02:59:32.476Z,9.85
2022-09-04T03:02:04.523Z,10.98
2022-09-04T03:04:44.415Z,11.55
2022-09-04T03:07:19.424Z,10.77
2022-09-04T03:09:53.053Z,10.85
2022-09-04T03:12:33.508Z,11.60
2022-09-04T03:15:14.539Z,10.88
2022-09-04T03:17:55.514Z,11.02
2022-09-04T03:20:28.045Z,11.45
2022-09-04T03:23:04.476Z,10.45
2022-09-04T03:26:17.786Z,11.48
2022-09-04T03:29:10.182Z,10.57
2022-09-04T03:31:49.106Z,11.68
2022-09-04T03:34:31.365Z,12.23
2022-09-04T03:37:21.324Z,12.48
2022-09-04T03:40:06.036Z,12.98
2022-09-04T03:42:46.063Z,12.85
2022-09-04T03:45:28.631Z,12.02
2022-09-04T03:48:15.552Z,12.85
2022-09-04T03:50:56.533Z,13.23
2022-09-04T03:53:33.250Z,13.60
2022-09-04T03:56:47.162Z,13.98
2022-09-04T03:59:27.829Z,12.85
2022-09-04T04:02:07.471Z,12.43
2022-09-04T04:05:12.065Z,13.73
2022-09-04T04:07:55.490Z,13.88
2022-09-04T04:10:40.463Z,13.77
2022-09-04T04:13:36.829Z,14.67
2022-09-04T04:16:26.643Z,14.77
2022-09-04T04:19:23.024Z,14.68
2022-09-04T04:22:10.241Z,14.77
2022-09-04T04:25:06.127Z,16.40
2022-09-04T04:28:01.481Z,16.73
2022-09-04T04:30:38.079Z,16.10
2022-09-04T04:33:36.333Z,16.45
2022-09-04T04:36:17.665Z,17.85
2022-09-04T04:39:04.439Z,16.40
2022-09-04T04:42:00.750Z,17.15
2022-09-04T04:45:26.413Z,17.48
2022-09-04T04:48:54.119Z,15.85
2022-09-04T04:52:05.831Z,16.45
2022-09-04T04:54:59.201Z,16.00
2022-09-04T04:57:39.563Z,17.45
2022-09-04T05:00:16.103Z,16.98
2022-09-04T05:03:01.502Z,17.48
2022-09-04T05:05:58.790Z,16.65
2022-09-04T05:08:41.730Z,17.27
2022-09-04T05:11:24.686Z,18.38
2022-09-04T05:14:07.939Z,18.25
2022-09-04T05:16:55.846Z,17.75
2022-09-04T05:19:33.599Z,18.33
2022-09-04T05:22:13.060Z,18.40
2022-09-04T05:24:56.634Z,18.77
2022-09-04T05:27:48.269Z,18.80
2022-09-04T05:30:23.050Z,19.30
2022-09-04T05:33:02.166Z,20.05
2022-09-04T05:35:42.694Z,18.77
2022-09-04T05:38:21.769Z,19.52
2022-09-04T05:41:08.049Z,20.17
2022-09-04T05:46:30.732Z,19.88
2022-09-04T05:49:06.638Z,21.08
2022-09-04T05:52:02.051Z,21.40
2022-09-04T05:55:01.564Z,21.33
2022-09-04T05:57:42.399Z,21.30
2022-09-04T06:00:16.011Z,20.73
2022-09-04T06:03:22.859Z,21.42
2022-09-04T06:06:13.538Z,19.35
2022-09-04T06:09:03.174Z,20.90
2022-09-04T06:11:46.502Z,20.75
2022-09-04T06:14:31.690Z,21.70
2022-09-04T06:17:24.816Z,20.90
2022-09-04T06:20:15.834Z,20.10
2022-09-04T06:23:25.230Z,18.98
2022-09-04T06:26:27.687Z,18.45
2022-09-04T06:29:24.799Z,17.95
2022-09-04T06:32:23.837Z,18.45
2022-09-04T06:35:20.991Z,17.70
2022-09-04T06:38:09.247Z,17.33
2022-09-04T06:40:53.460Z,17.70
2022-09-04T06:43:33.857Z,17.40
2022-09-04T06:46:20.391Z,17.27
2022-09-04T06:49:02.730Z,17.13
2022-09-04T06:52:06.057Z,17.60
2022-09-04T06:54:56.382Z,17.00
2022-09-04T06:57:50.759Z,16.98
2022-09-04T07:00:20.716Z,17.15
2022-09-04T07:03:18.280Z,16.77
2022-09-04T07:06:01.421Z,16.77
2022-09-04T07:08:47.092Z,16.20
2022-09-04T07:11:33.504Z,17.08
2022-09-04T07:14:32.093Z,17.23
2022-09-04T07:17:11.557Z,16.90
2022-09-04T07:20:16.541Z,17.58
2022-09-04T07:23:03.218Z,17.17
2022-09-04T07:25:44.259Z,17.20
2022-09-04T07:28:38.947Z,16.95
2022-09-04T07:31:12.929Z,17.33
2022-09-04T07:33:53.130Z,17.05
2022-09-04T07:36:33.206Z,17.13
2022-09-04T07:39:10.611Z,16.30
2022-09-04T07:41:47.763Z,17.10
2022-09-04T07:44:27.267Z,16.88
2022-09-04T07:47:12.309Z,16.48
2022-09-04T07:50:02.462Z,17.05
2022-09-04T07:53:02.666Z,16.50
2022-09-04T07:55:40.533Z,16.58
2022-09-04T07:59:00.983Z,16.05
2022-09-04T08:02:00.081Z,16.23
2022-09-04T08:05:08.689Z,15.82
2022-09-04T08:08:24.854Z,15.98
2022-09-04T08:11:13.655Z,15.40
2022-09-04T08:14:06.369Z,16.27
2022-09-04T08:16:46.284Z,15.32
2022-09-04T08:19:30.566Z,15.63
2022-09-04T08:21:59.851Z,15.82
2022-09-04T08:25:19.222Z,14.93
2022-09-04T08:28:24.399Z,14.90
2022-09-04T08:31:06.319Z,17.45
2022-09-04T08:34:24.804Z,14.60
2022-09-04T08:37:03.500Z,13.25
2022-09-04T08:39:41.664Z,13.82
2022-09-04T08:42:50.544Z,13.60
2022-09-04T08:46:15.720Z,14.05
2022-09-04T08:49:47.001Z,14.07
2022-09-04T08:52:52.579Z,13.60
2022-09-04T08:55:46.924Z,14.40
2022-09-04T08:59:31.407Z,14.25
2022-09-04T09:02:52.305Z,15.05
2022-09-04T09:06:29.733Z,15.27
2022-09-04T09:09:40.931Z,15.65
2022-09-04T09:13:04.830Z,15.32
2022-09-04T09:16:04.174Z,15.90
2022-09-04T09:18:40.633Z,16.05
2022-09-04T09:21:13.585Z,15.93
2022-09-04T09:24:16.637Z,15.95
2022-09-04T09:27:09.548Z,16.55
2022-09-04T09:30:05.229Z,17.08
2022-09-04T09:33:32.344Z,16.42
2022-09-04T09:36:54.319Z,15.50
2022-09-04T09:40:11.872Z,15.80
2022-09-04T09:43:26.759Z,13.80
2022-09-04T09:46:33.211Z,14.80
2022-09-04T09:50:01.029Z,14.50
2022-09-04T09:53:23.910Z,11.82
2022-09-04T09:56:42.842Z,10.40
2022-09-04T10:00:13.257Z,11.00
2022-09-04T10:03:50.229Z,11.85
2022-09-04T10:07:02.361Z,11.55
2022-09-04T10:10:41.198Z,13.45
2022-09-04T10:13:57.476Z,11.40
2022-09-04T10:17:17.156Z,10.27
2022-09-04T10:20:50.702Z,10.18
2022-09-04T10:23:58.400Z,9.00
2022-09-04T10:27:12.333Z,10.13
2022-09-04T10:30:00.973Z,9.77
2022-09-04T10:33:09.193Z,10.48
2022-09-04T10:35:58.115Z,9.60
2022-09-04T10:39:00.818Z,9.90
2022-09-04T10:41:53.156Z,9.90
2022-09-04T10:44:51.431Z,10.20
2022-09-04T10:47:38.535Z,11.43
2022-09-04T10:50:40.025Z,11.48
2022-09-04T10:53:31.834Z,9.65
2022-09-04T10:56:09.645Z,10.30
2022-09-04T10:59:10.241Z,9.73
2022-09-04T11:02:16.538Z,9.57
2022-09-04T11:05:30.228Z,9.35
2022-09-04T11:08:24.248Z,8.93
2022-09-04T11:11:20.235Z,9.43
2022-09-04T11:14:25.590Z,9.27
2022-09-04T11:17:38.773Z,9.65
2022-09-04T11:20:49.984Z,9.35
2022-09-04T11:24:20.956Z,10.07
2022-09-04T11:27:49.281Z,8.32
2022-09-04T11:30:21.248Z,8.10
2022-09-04T11:33:50.965Z,8.85
2022-09-04T11:36:58.115Z,7.13
2022-09-04T11:40:44.396Z,10.48
2022-09-04T11:43:36.845Z,11.50
2022-09-04T11:46:39.831Z,9.35
2022-09-04T11:49:40.759Z,10.88
2022-09-04T11:52:23.779Z,9.82
2022-09-04T11:55:24.049Z,9.38
2022-09-04T11:58:12.262Z,9.70
2022-09-04T12:00:59.376Z,7.80
2022-09-04T12:04:02.828Z,11.70
2022-09-04T12:06:51.141Z,13.27
2022-09-04T12:10:11.558Z,13.65
2022-09-04T12:13:15.663Z,13.40
2022-09-04T12:16:32.897Z,12.98
2022-09-04T12:19:46.599Z,12.32
2022-09-04T12:22:57.125Z,22.90
2022-09-04T12:25:53.498Z,15.25
2022-09-04T12:29:01.303Z,18.20
2022-09-04T12:31:56.871Z,11.68
2022-09-04T12:34:50.202Z,10.32
2022-09-04T12:37:48.853Z,10.20
2022-09-04T12:40:51.737Z,10.48
2022-09-04T12:43:36.933Z,11.27
2022-09-04T12:46:38.383Z,9.13
2022-09-04T12:49:30.642Z,8.68
2022-09-04T12:52:19.063Z,8.23
2022-09-04T12:55:04.865Z,7.95
2022-09-04T12:57:49.153Z,7.00
2022-09-04T13:00:18.564Z,8.17
2022-09-04T13:03:01.509Z,8.55
2022-09-04T13:05:53.596Z,7.88
2022-09-04T13:08:35.810Z,10.82
2022-09-04T13:11:19.906Z,36.55
2022-09-04T13:14:00.810Z,11.90
2022-09-04T13:16:39.557Z,9.50
2022-09-04T13:19:18.402Z,7.53
2022-09-04T13:22:17.312Z,7.28
2022-09-04T13:25:02.590Z,7.28
2022-09-04T13:30:21.682Z,7.38
2022-09-04T13:33:14.562Z,7.13
2022-09-04T13:36:06.783Z,7.22
2022-09-04T13:39:13.515Z,7.85
2022-09-04T13:42:33.462Z,8.77
2022-09-04T13:45:12.096Z,7.82
2022-09-04T13:47:50.873Z,7.72
2022-09-04T13:50:26.203Z,7.95
2022-09-04T13:52:59.646Z,8.30
2022-09-04T13:55:32.987Z,7.55
2022-09-04T13:58:10.829Z,8.65
2022-09-04T14:00:46.979Z,8.48
2022-09-04T14:03:31.424Z,10.18
2022-09-04T14:06:00.967Z,8.90
2022-09-04T14:08:31.112Z,9.07
2022-09-04T14:11:39.278Z,10.25
2022-09-04T14:14:48.521Z,8.48
2022-09-04T14:17:26.916Z,8.57
2022-09-04T14:20:04.355Z,7.22
2022-09-04T14:22:46.012Z,7.57
2022-09-04T14:25:22.435Z,8.10
2022-09-04T14:28:00.057Z,8.52
2022-09-04T14:30:29.682Z,9.00
2022-09-04T14:33:21.689Z,9.48
2022-09-04T14:36:02.451Z,8.75
2022-09-04T14:39:15.758Z,7.32
2022-09-04T14:42:06.859Z,7.70
2022-09-04T14:44:52.414Z,7.32
2022-09-04T14:47:31.578Z,7.85
2022-09-04T14:50:03.589Z,7.85
2022-09-04T14:53:02.269Z,7.32
2022-09-04T14:55:33.533Z,7.78
2022-09-04T14:58:27.349Z,6.30
2022-09-04T15:01:03.705Z,6.90
2022-09-04T15:03:38.266Z,6.38
2022-09-04T15:06:19.366Z,5.50
2022-09-04T15:08:51.486Z,5.10
2022-09-04T15:11:31.850Z,4.82
2022-09-04T15:14:08.934Z,5.13
2022-09-04T15:16:50.585Z,4.25
2022-09-04T15:19:54.993Z,4.57
2022-09-04T15:22:34.827Z,4.20
2022-09-04T15:25:09.177Z,4.38
2022-09-04T15:27:50.702Z,5.40
2022-09-04T15:30:23.187Z,4.45
2022-09-04T15:33:03.538Z,4.60
2022-09-04T15:35:33.944Z,5.05
2022-09-04T15:38:21.800Z,4.28
2022-09-04T15:41:16.964Z,5.05
2022-09-04T15:43:52.073Z,4.45
2022-09-04T15:46:31.827Z,4.20
2022-09-04T15:49:20.293Z,4.20
2022-09-04T15:51:56.163Z,4.13
2022-09-04T15:54:38.515Z,4.32
2022-09-04T15:57:14.602Z,3.75
2022-09-04T15:59:52.163Z,3.20
2022-09-04T16:02:36.282Z,4.00
2022-09-04T16:05:14.956Z,3.45
2022-09-04T16:07:54.497Z,3.50
2022-09-04T16:10:33.346Z,3.63
2022-09-04T16:13:11.987Z,3.58
2022-09-04T16:15:43.750Z,3.38
2022-09-04T16:18:19.574Z,3.50
2022-09-04T16:20:55.034Z,3.88
2022-09-04T16:23:30.822Z,4.00
2022-09-04T16:26:09.939Z,4.00
2022-09-04T16:28:45.480Z,3.88
2022-09-04T16:31:16.893Z,3.78
2022-09-04T16:33:53.266Z,4.28
2022-09-04T16:36:28.309Z,3.83
2022-09-04T16:41:37.566Z,3.92
2022-09-04T16:44:26.201Z,3.50
2022-09-04T16:47:04.535Z,3.50
2022-09-04T16:49:42.216Z,3.28
2022-09-04T16:52:44.733Z,3.05
2022-09-04T16:55:21.630Z,3.03
2022-09-04T16:58:07.114Z,3.40
2022-09-04T17:03:41.610Z,3.17
2022-09-04T17:06:23.087Z,4.93
2022-09-04T17:09:04.275Z,3.30
2022-09-04T17:11:55.520Z,3.83
2022-09-04T17:14:33.306Z,3.00
2022-09-04T17:17:21.593Z,3.50
2022-09-04T17:20:06.081Z,3.40
2022-09-04T17:28:56.955Z,3.20
2022-09-04T17:28:57.899Z,3.05
2022-09-04T17:31:45.309Z,3.65
2022-09-04T17:40:53.291Z,3.50
2022-09-04T17:40:53.607Z,3.38
2022-09-04T17:40:56.942Z,3.15
2022-09-04T17:43:27.711Z,3.67
2022-09-04T17:46:09.554Z,3.63
2022-09-04T17:48:44.933Z,4.00
2022-09-04T17:51:24.758Z,3.80
2022-09-04T17:53:58.214Z,3.55
2022-09-04T17:56:32.818Z,3.55
2022-09-04T17:59:09.485Z,4.13
2022-09-04T18:01:59.321Z,3.67
2022-09-04T18:04:39.366Z,4.22
2022-09-04T18:07:50.954Z,3.70
2022-09-04T18:10:18.811Z,4.07
2022-09-04T18:12:53.237Z,4.45
2022-09-04T18:15:34.701Z,4.90
2022-09-04T18:18:14.715Z,3.72
2022-09-04T18:20:51.921Z,3.83
2022-09-04T18:24:03.594Z,4.20
2022-09-04T18:26:41.498Z,4.93
2022-09-04T18:32:57.627Z,4.35
2022-09-04T18:37:07.259Z,5.07
2022-09-04T18:37:22.080Z,5.55
2022-09-04T18:39:08.741Z,4.97
2022-09-04T18:48:21.754Z,4.90
2022-09-04T18:50:42.919Z,5.32
2022-09-04T18:50:50.779Z,5.32
2022-09-04T18:51:19.502Z,5.22
2022-09-04T18:53:55.186Z,5.50
2022-09-04T18:56:29.491Z,5.50
2022-09-04T18:59:08.825Z,5.38
2022-09-04T19:01:46.745Z,5.38
2022-09-04T19:04:53.185Z,5.40
2022-09-04T19:07:31.864Z,5.45
2022-09-04T19:10:25.420Z,5.65
2022-09-04T19:13:08.241Z,6.43
2022-09-04T19:15:58.382Z,6.85
2022-09-04T19:18:43.697Z,6.22
2022-09-04T19:21:32.520Z,6.90
2022-09-04T19:24:26.020Z,7.35
2022-09-04T19:27:26.622Z,6.78
2022-09-04T19:30:19.794Z,6.43
2022-09-04T19:33:10.633Z,8.05
2022-09-04T19:35:47.876Z,10.63
2022-09-04T19:45:39.633Z,8.10
2022-09-04T19:46:00.639Z,6.43
2022-09-04T19:46:01.576Z,7.70
2022-09-04T19:47:38.080Z,7.30
2022-09-04T19:52:58.911Z,7.18
2022-09-04T19:53:38.830Z,6.82
2022-09-04T19:56:21.937Z,7.43
2022-09-04T19:58:55.995Z,8.18
2022-09-04T20:01:31.405Z,7.53
2022-09-04T20:04:09.699Z,7.85
2022-09-04T20:06:47.996Z,7.90
2022-09-04T20:09:21.682Z,8.52
2022-09-04T20:11:59.228Z,7.70
2022-09-04T20:14:37.544Z,7.78
2022-09-04T20:17:28.449Z,7.97
2022-09-04T20:20:03.164Z,7.63
2022-09-04T20:22:37.257Z,8.73
2022-09-04T20:25:46.268Z,8.02
2022-09-04T20:28:48.574Z,8.38
2022-09-04T20:31:44.977Z,8.50
2022-09-04T20:34:30.450Z,8.60
2022-09-04T20:37:19.276Z,7.03
2022-09-04T20:40:01.371Z,7.88
2022-09-04T20:42:38.898Z,7.90
2022-09-04T20:50:27.184Z,8.38
2022-09-04T20:52:52.038Z,8.48
2022-09-04T20:52:53.416Z,8.23
2022-09-04T20:54:55.665Z,8.68
2022-09-04T21:03:11.861Z,8.15
2022-09-04T21:03:14.006Z,8.50
2022-09-04T21:03:38.953Z,8.45
2022-09-04T21:06:29.649Z,8.40
2022-09-04T21:09:18.900Z,7.30
2022-09-04T21:11:52.054Z,7.53
2022-09-04T21:14:44.851Z,7.45
2022-09-04T21:17:50.035Z,7.97
2022-09-04T21:21:02.429Z,7.07
2022-09-04T21:24:03.430Z,6.43
2022-09-04T21:26:59.958Z,7.03
2022-09-04T21:29:57.859Z,6.88
2022-09-04T21:33:28.365Z,7.10
2022-09-04T21:35:55.548Z,7.47
2022-09-04T21:39:14.734Z,7.25
2022-09-04T21:41:59.283Z,6.75
2022-09-04T21:45:12.957Z,7.15
2022-09-04T21:48:28.211Z,7.18
2022-09-04T21:51:29.093Z,5.88
2022-09-04T21:57:17.642Z,7.32
2022-09-04T22:02:37.800Z,6.97
2022-09-04T22:02:45.673Z,6.45
2022-09-04T22:04:55.285Z,6.88
2022-09-04T22:11:39.857Z,6.47
2022-09-04T22:13:29.713Z,6.95
2022-09-04T22:13:50.412Z,6.72
2022-09-04T22:16:47.103Z,7.43
2022-09-04T22:22:04.125Z,6.95
2022-09-04T22:25:20.135Z,6.70
2022-09-04T22:28:37.240Z,6.70
2022-09-04T22:34:47.797Z,7.20
2022-09-04T22:38:00.142Z,6.70
2022-09-04T22:40:56.781Z,6.28
2022-09-04T22:43:29.195Z,7.43
2022-09-04T22:47:24.461Z,7.00
2022-09-04T22:50:39.036Z,6.47
2022-09-04T22:53:42.917Z,6.15
2022-09-04T22:56:24.137Z,6.63
2022-09-04T22:59:33.914Z,6.63
2022-09-04T23:03:06.611Z,7.35
2022-09-04T23:08:40.920Z,6.55
2022-09-04T23:13:54.634Z,5.97
2022-09-04T23:13:57.803Z,7.00
2022-09-04T23:15:48.394Z,6.93
2022-09-04T23:19:50.201Z,7.13
2022-09-04T23:26:35.495Z,7.70
2022-09-04T23:26:45.503Z,7.38
2022-09-04T23:28:28.752Z,7.25
2022-09-04T23:31:19.972Z,8.43
2022-09-04T23:35:13.532Z,7.80
2022-09-04T23:38:09.691Z,7.55
2022-09-04T23:40:47.172Z,7.88
2022-09-04T23:43:47.745Z,7.60
2022-09-04T23:46:45.278Z,7.65
2022-09-04T23:49:52.091Z,7.57
2022-09-04T23:52:30.597Z,7.85
2022-09-04T23:55:17.623Z,7.20
2022-09-04T23:57:54.338Z,7.72
